Portada
METAR-TAF:

METAR-TAF

Aeropuertos :

Recife, Pernambuco, Brasil

Aeropuerto Internacional de Recife

latitud: 08-08S, longitud: 034-55W, altitud: 19 m

Observación

El informe se hizo hace 15 minutos, a las 19:00 UTC
Viento 9 kt del sureste, variando entre este y sur-sureste
Temperatura 28°C
Humedad 66%
Presión 1010 hPa
Visibilidad 10 km o más
Escasas nubes a una altura de 2300 ft

METAR: SBRF 211900Z 13009KT 090V160 9999 FEW023 28/21 Q1010

Hora: 16:15 (19:15 UTC)

Pronóstico

El informe se hizo hace 4 horas y 15 minutos, a las 15:00 UTC
Pronóstico válido del 21 a las 18 UTC al 22 a las 18 UTC
Viento 8 kt del este
Visibilidad 10 km o más
Nubes dispersas a una altura de 2200 ft
Nubes dispersas a una altura de 4000 ft

TAF: SBRF 211500Z 2118/2218 10008KT 9999 SCT022 SCT040 TN24/2208Z TX29 /2214Z RMK PEU

Observaciones y pronósticos meteorológicos de más de 4000 aeropuertos (mensajes METAR y TAF).

Los puntos amarillos y rojos representan las estaciones disponibles.

Ponga el ratón en el punto deseado para ver el nombre de la estación.

Haga clic para ver las observaciones y los pronósticos meteorológicos.

Para cambiar el mapa : haga clic en los botones verdes con una cruz de color negro para hacer un zoom, en el botón verde con un guión para alejar o en las flechas verdes para mapas adyacentes.


METAR-TAF: